Brotas, Brazil
Current Conditions -  °F | °C
As of 9:00 PM on Friday 28 Nov 2014 (Local Time) from SBYS Reporting Station
Overcast Overcast  
Wind Chill: 81°   Ceiling: 4500
Heat Index: 82°   Visibility: 6mi
Dew Point: 64°   Wind: 13mph
Humidity: 58%   Direction: 160°SSE
Pressure: 29.97"   Gusts: NA
Location:  22.28°S, 48.12°W
Report Text: SBYS 282300Z 16011KT 9999 BKN045 OVC070 27/18 Q1015
Loading
Personal Weather Stations






























Interactive Weather Map New forecast layout! Learn more

10-Day Weather Forecast

Advertisements
Track Severe Weather on mobile